Huvudsida
METAR-TAF:

METAR-TAF

Flygplatser :

Cerklje ob Krki, Slovenien

latitud: 45-53-59N, longitud: 15-30-55E, höjd: 157 m

Aktuellt väderrapport

Denna rapport gjordes för 18 minuter sedan, klockan 14:30 UTC
Vind 2 kt varierande vindriktning
Temperatur 32°C
Fuktighet 49%
Tryck 1023 hPa
Sikt 10 km eller mer

METAR: LJCE 261430Z AUTO VRB02KT 9999 NCD 32/20 Q1023

Tid: 16:48 (14:48 UTC)

Väderprognos

Denna rapport gjordes för 48 minuter sedan, klockan 14:00 UTC
Prognos gäller från 26 kl. 15 UTC till 26 kl. 24 UTC
Vind 5 kt från ost
Sikt 10 km eller mer
Få moln på en höjd av 4500 ft
Blir
från 26 kl. 15 UTC till 26 kl. 17 UTC
Vind 2 kt varierande vindriktning
Sikt 10 km eller mer
Inga moln under 1 500 m eller inga cumulonimbus

TAF: LJCE 261400Z 2615/2624 08005KT 9999 FEW045 BECMG 2615/2617 VRB02KT CAVOK

Aktuella väderrapporter och prognoser från 4000 flygplatser (METAR- och TAF-rapporter).

De tillgängliga stationerna syns som gula och röda prickar på kartan.

För musen över prickarna för att se namnen på stationerna.

Klicka sedan för att få väderrapporter och prognoser.

För att ändra kartan: Klicka på de gröna knapparna med ett svart kors på för att zooma in; den gröna knappen med ett streck på för att zooma ut; eller på de gröna pilarna för angränsande kartor.


METAR-TAF: